• Join FlightAware (Why Join?)
  • Login
  • US Flag 
06:27PM EST


 

Airport Tracker/Info


-or-


 

Live Flight TrackerFlight Track Log ✈ N9HM ✈ 23-Jun-2013 ✈ KSBP - KSEZ

Flight Track Log - Related Links

Times and Time Zones

All times are in EDT time to prevent confusion due to time zone crossing. See the N9HM flight status page for this flight to view local times or setup timezone preferences in your user account.

Time Position Orientation Groundspeed Altitude Reporting Facility
EDT Latitude Longitude Course Direction KTS MPH feet Rate Location/Type
11:14AM 35.2511 -120.6683 301° West 107 123 1,100  Level Los Angeles Center
11:16AM 35.2658 -120.6978 301° West 101 116 2,100 840 Climbing Los Angeles Center
11:17AM 35.2747 -120.7292 289° West 97 112 3,000 840 Climbing Los Angeles Center
11:18AM 35.2486 -120.7236 170° South 120 138 3,900 660 Climbing Los Angeles Center
11:19AM 35.2378 -120.6872 110° East 115 132 4,500 540 Climbing Los Angeles Center
11:20AM 35.2289 -120.6469 105° East 120 138 5,100 540 Climbing Los Angeles Center
11:21AM 35.2206 -120.6075 104° East 120 138 5,700 540 Climbing Los Angeles Center
11:22AM 35.2125 -120.5678 104° East 121 139 6,300 480 Climbing Los Angeles Center
11:23AM 35.2042 -120.5275 104° East 121 139 6,800 480 Climbing Los Angeles Center
11:24AM 35.1931 -120.4783 105° East 124 143 7,400 480 Climbing Los Angeles Center
11:25AM 35.1839 -120.4372 105° East 125 144 7,900 480 Climbing Los Angeles Center
11:26AM 35.1722 -120.3883 106° East 125 144 8,500 480 Climbing Los Angeles Center
11:27AM 35.1650 -120.3472 102° East 124 143 8,900 420 Climbing Los Angeles Center
11:28AM 35.1567 -120.3061 104° East 124 143 9,400 420 Climbing Los Angeles Center
11:29AM 35.1475 -120.2642 105° East 126 145 9,800 360 Climbing Los Angeles Center
11:30AM 35.1378 -120.2222 106° East 128 147 10,200 360 Climbing Los Angeles Center
11:31AM 35.1267 -120.1731 105° East 125 144 10,600 300 Climbing Los Angeles Center
11:32AM 35.1181 -120.1367 106° East 127 146 10,900 180 Climbing Los Angeles Center
11:33AM 35.1061 -120.0844 106° East 130 150 11,000  Climbing Los Angeles Center
11:34AM 35.0956 -120.0367 105° East 140 161 11,000  Level Los Angeles Center
11:35AM 35.0844 -119.9875 105° East 149 171 11,000  Level Los Angeles Center
11:36AM 35.0744 -119.9378 104° East 150 173 11,000  Level Los Angeles Center
11:37AM 35.0639 -119.8894 105° East 149 171 11,000  Level Los Angeles Center
11:38AM 35.0536 -119.8403 104° East 149 171 11,000  Level Los Angeles Center
11:40AM 35.0400 -119.7822 106° East 149 171 11,000  Level Los Angeles Center
11:41AM 35.0272 -119.7350 108° East 147 169 11,000  Level Los Angeles Center
11:42AM 35.0189 -119.6861 102° East 146 168 11,000  Level Los Angeles Center
11:43AM 35.0069 -119.6383 107° East 147 169 11,000  Level Los Angeles Center
11:44AM 34.9953 -119.5903 106° East 147 169 11,000  Level Los Angeles Center
11:45AM 34.9856 -119.5433 104° East 145 167 11,000  Level Los Angeles Center
11:46AM 34.9742 -119.4956 106° East 145 167 11,000  Level Los Angeles Center
11:47AM 34.9603 -119.4372 106° East 148 170 11,000  Level Los Angeles Center
11:48AM 34.9508 -119.3892 103° East 146 168 11,000  Level Los Angeles Center
11:49AM 34.9392 -119.3414 107° East 146 168 11,000  Level Los Angeles Center
11:50AM 34.9275 -119.2944 107° East 145 167 11,000  Level Los Angeles Center
11:51AM 34.9183 -119.2472 103° East 145 167 11,000  Level Los Angeles Center
11:52AM 34.9067 -119.2017 107° East 141 162 11,000  Level Los Angeles Center
11:53AM 34.8933 -119.1444 106° East 146 168 11,100  Climbing Los Angeles Center
11:54AM 34.8939 -119.0944 89° East 148 170 11,100  Level Los Angeles Center
11:55AM 34.8972 -119.0453 85° East 147 169 11,100  Level Los Angeles Center
11:56AM 34.8914 -118.9975 98° East 146 168 11,100  Level Los Angeles Center
11:57AM 34.8928 -118.9467 88° East 149 171 11,100  Level Los Angeles Center
11:58AM 34.8944 -118.8981 88° East 146 168 11,100  Level Los Angeles Center
11:59AM 34.8922 -118.8383 93° East 147 169 11,100  Level Los Angeles Center
12:00PM 34.8908 -118.7894 92° East 146 168 11,100 -60 Level Los Angeles Center
12:01PM 34.8911 -118.7383 90° East 150 173 11,000  Descending Los Angeles Center
12:02PM 34.8903 -118.6908 91° East 143 165 11,100  Climbing Los Angeles Center
12:03PM 34.8900 -118.6394 90° East 149 171 11,100  Level Los Angeles Center
12:04PM 34.8881 -118.5903 93° East 147 169 11,100 -60 Level Los Angeles Center
12:05PM 34.8883 -118.5361 90° East 157 181 11,000 -60 Descending Los Angeles Center
12:06PM 34.8861 -118.4800 93° East 140 161 11,000  Level Los Angeles Center
12:07PM 34.8886 -118.4339 86° East 146 168 11,100  Climbing Los Angeles Center
12:08PM 34.8881 -118.3853 91° East 144 166 11,100 -60 Level Los Angeles Center
12:09PM 34.8858 -118.3378 93° East 142 163 11,000 -60 Descending Los Angeles Center
12:10PM 34.8861 -118.2803 90° East 142 163 11,000  Level Los Angeles Center
12:11PM 34.8861 -118.2325 90° East 141 162 11,000  Level Los Angeles Center
12:12PM 34.8842 -118.1836 93° East 144 166 11,100  Climbing Los Angeles Center
12:14PM 34.8836 -118.1319 91° East 150 173 11,100  Level Los Angeles Center
12:15PM 34.8822 -118.0828 92° East 148 170 11,100  Level Los Angeles Center
12:16PM 34.8817 -118.0325 91° East 149 171 11,100  Level Los Angeles Center
12:17PM 34.8814 -117.9836 90° East 146 168 11,100  Level Los Angeles Center
12:18PM 34.8792 -117.9228 93° East 149 171 11,100  Level Los Angeles Center
12:19PM 34.8783 -117.8725 91° East 150 173 11,100  Level Los Angeles Center
12:20PM 34.8767 -117.8233 92° East 148 170 11,100  Level Los Angeles Center
12:21PM 34.8769 -117.7728 90° East 148 170 11,100  Level Los Angeles Center
12:22PM 34.8758 -117.7228 92° East 149 171 11,100  Level Los Angeles Center
12:23PM 34.8742 -117.6617 92° East 152 175 11,100  Level Los Angeles Center
12:24PM 34.8739 -117.6108 90° East 151 174 11,100  Level Los Angeles Center
12:25PM 34.8728 -117.5611 92° East 150 173 11,100  Level Los Angeles Center
12:26PM 34.8708 -117.5097 93° East 152 175 11,100  Level Los Angeles Center
12:27PM 34.8694 -117.4586 92° East 153 176 11,100  Level Los Angeles Center
12:28PM 34.8692 -117.4000 90° East 147 169 11,100  Level Los Angeles Center
12:29PM 34.8667 -117.3489 93° East 149 171 11,100  Level Los Angeles Center
12:30PM 34.8661 -117.2983 91° East 150 173 11,100  Level Los Angeles Center
12:31PM 34.8647 -117.2478 92° East 150 173 11,100  Level Los Angeles Center
12:32PM 34.8639 -117.1975 91° East 150 173 11,100  Level Los Angeles Center
12:33PM 34.8628 -117.1481 92° East 149 171 11,100  Level Los Angeles Center
12:34PM 34.8608 -117.0897 92° East 146 168 11,100  Level Los Angeles Center
12:35PM 34.8597 -117.0403 92° East 146 168 11,100  Level Los Angeles Center
12:36PM 34.8581 -116.9917 92° East 146 168 11,200  Climbing Los Angeles Center
12:37PM 34.8564 -116.9422 92° East 146 168 11,100 -60 Descending Los Angeles Center
12:38PM 34.8561 -116.8931 90° East 146 168 11,100  Level Los Angeles Center
12:39PM 34.8547 -116.8428 92° East 146 168 11,100  Level Los Angeles Center
12:40PM 34.8531 -116.7839 92° East 147 169 11,100  Level Los Angeles Center
12:41PM 34.8508 -116.7361 93° East 145 167 11,100  Level Los Angeles Center
12:42PM 34.8508 -116.6878 90° East 144 166 11,100  Level Los Angeles Center
12:43PM 34.8494 -116.6389 92° East 144 166 11,100  Level Los Angeles Center
12:45PM 34.8472 -116.5894 93° East 145 167 11,100  Level Los Angeles Center
12:46PM 34.8456 -116.5389 92° East 148 170 11,100  Level Los Angeles Center
12:47PM 34.8442 -116.4800 92° East 146 168 11,100  Level Los Angeles Center
12:48PM 34.8425 -116.4322 92° East 145 167 11,100  Level Los Angeles Center
12:49PM 34.8408 -116.3836 92° East 144 166 11,100  Level Los Angeles Center
12:50PM 34.8397 -116.3350 92° East 144 166 11,100  Level Los Angeles Center
12:51PM 34.8383 -116.2883 92° East 142 163 11,100  Level Los Angeles Center
12:52PM 34.8372 -116.2314 91° East 140 161 11,100  Level Los Angeles Center
12:53PM 34.8344 -116.1847 94° East 140 161 11,100  Level Los Angeles Center
12:54PM 34.8331 -116.1372 92° East 140 161 11,100  Level Los Angeles Center
12:55PM 34.8311 -116.0906 93° East 139 160 11,100  Level Los Angeles Center
12:56PM 34.8294 -116.0422 92° East 141 162 11,100  Level Los Angeles Center
12:57PM 34.8281 -115.9964 92° East 139 160 11,100  Level Los Angeles Center
12:58PM 34.8272 -115.9397 91° East 139 160 11,100  Level Los Angeles Center
12:59PM 34.8250 -115.8933 93° East 139 160 11,100  Level Los Angeles Center
01:00PM 34.8236 -115.8464 92° East 139 160 11,100  Level Los Angeles Center
01:01PM 34.8231 -115.8000 91° East 139 160 11,100  Level Los Angeles Center
01:02PM 34.8206 -115.7528 94° East 139 160 11,100  Level Los Angeles Center
01:03PM 34.8183 -115.7061 93° East 139 160 11,100  Level Los Angeles Center
01:04PM 34.8164 -115.6486 92° East 141 162 11,100  Level Los Angeles Center
01:05PM 34.8144 -115.6025 93° East 139 160 11,100  Level Los Angeles Center
01:06PM 34.8136 -115.5556 91° East 137 158 11,100  Level Los Angeles Center
01:07PM 34.8114 -115.5097 93° East 136 157 11,100  Level Los Angeles Center
01:09PM 34.8094 -115.4533 92° East 138 159 11,100  Level Los Angeles Center
01:10PM 34.8078 -115.4064 92° East 140 161 11,100  Level Los Angeles Center
01:11PM 34.8056 -115.3483 93° East 141 162 11,100  Level Los Angeles Center
01:12PM 34.8036 -115.3017 93° East 140 161 11,100  Level Los Angeles Center
01:14PM 34.7994 -115.2081 93° East 140 161 11,200  Climbing Los Angeles Center
01:15PM 34.7983 -115.1606 92° East 139 160 11,200  Level Los Angeles Center
01:16PM 34.7947 -115.1128 95° East 140 161 11,200  Level Los Angeles Center
01:17PM 34.7939 -115.0558 91° East 141 162 11,200  Level Los Angeles Center
01:18PM 34.7919 -115.0072 93° East 142 163 11,200  Level Los Angeles Center
01:19PM 34.7908 -114.9586 92° East 143 165 11,200  Level Los Angeles Center
01:20PM 34.7869 -114.9150 96° East 139 160 11,200  Level Los Angeles Center
01:22PM 34.7844 -114.8172 92° East 140 161 11,300  Climbing Albuquerque Center
01:23PM 34.7825 -114.7689 93° East 141 162 11,300  Level Albuquerque Center
01:24PM 34.7794 -114.7242 95° East 139 160 11,300 -60 Level Albuquerque Center
01:25PM 34.7761 -114.6667 94° East 143 165 11,200 -60 Descending Los Angeles Center
01:26PM 34.7742 -114.6189 93° East 143 165 11,200  Level Los Angeles Center
01:27PM 34.7728 -114.5725 92° East 140 161 11,300  Climbing Los Angeles Center
01:28PM 34.7700 -114.5236 94° East 143 165 11,200 -60 Descending Los Angeles Center
01:29PM 34.7667 -114.4686 94° East 138 159 11,200  Level Los Angeles Center
01:30PM 34.7656 -114.4219 92° East 138 159 11,200  Level Los Angeles Center
01:31PM 34.7672 -114.3758 87° East 138 159 11,300  Climbing Los Angeles Center
01:32PM 34.7639 -114.3297 95° East 137 158 11,300  Level Los Angeles Center
01:33PM 34.7644 -114.2822 89° East 140 161 11,300  Level Los Angeles Center
01:34PM 34.7619 -114.2381 94° East 134 154 11,300  Level Los Angeles Center
01:35PM 34.7597 -114.1842 93° East 134 154 11,300  Level Los Angeles Center
01:36PM 34.7597 -114.1378 90° East 137 158 11,300  Level Los Angeles Center
01:37PM 34.7583 -114.0903 92° East 139 160 11,300  Level Los Angeles Center
01:39PM 34.7575 -114.0442 91° East 138 159 11,300  Level Los Angeles Center
01:40PM 34.7544 -113.9889 94° East 137 158 11,300  Level Los Angeles Center
01:41PM 34.7539 -113.9419 91° East 138 159 11,300  Level Los Angeles Center
01:42PM 34.7544 -113.8850 89° East 141 162 11,300  Level Los Angeles Center
01:42PM 34.7536 -113.8561 92° East 140 161 11,400  Climbing Albuquerque Center
01:44PM 34.7508 -113.8108 94° East 138 159 11,400  Level Albuquerque Center
01:45PM 34.7489 -113.7628 93° East 137 158 11,400  Level Albuquerque Center
01:46PM 34.7475 -113.7083 92° East 139 160 11,400  Level Albuquerque Center
01:47PM 34.7464 -113.6606 92° East 142 163 11,400  Level Albuquerque Center
01:48PM 34.7453 -113.6119 92° East 143 165 11,400  Level Albuquerque Center
01:49PM 34.7442 -113.5639 92° East 144 166 11,400  Level Albuquerque Center
01:50PM 34.7417 -113.5158 94° East 143 165 11,400  Level Albuquerque Center
01:51PM 34.7403 -113.4625 92° East 137 158 11,400  Level Albuquerque Center
01:52PM 34.7378 -113.4172 94° East 135 155 11,400  Level Albuquerque Center
01:53PM 34.7378 -113.3692 90° East 140 161 11,400  Level Albuquerque Center
01:54PM 34.7331 -113.3239 97° East 139 160 11,400 -120 Level Albuquerque Center
01:55PM 34.7333 -113.2758 90° East 140 161 11,200 -240 Descending Albuquerque Center
01:56PM 34.7342 -113.2147 89° East 147 169 11,000 -240 Descending Albuquerque Center
01:57PM 34.7289 -113.1672 98° East 146 168 10,800 -60 Descending Albuquerque Center
01:58PM 34.7386 -113.1186 76° East 154 177 10,900 60 Climbing Albuquerque Center
01:59PM 34.7517 -113.0706 72° East 148 170 11,000 60 Climbing Albuquerque Center
02:00PM 34.7669 -113.0236 68° East 150 173 11,100  Climbing Albuquerque Center
02:01PM 34.7822 -112.9700 71° East 144 166 11,000  Descending Albuquerque Center
02:02PM 34.7919 -112.9236 76° East 142 163 11,200  Climbing Albuquerque Center
02:03PM 34.8031 -112.8747 75° East 146 168 11,100  Descending Albuquerque Center
02:04PM 34.8167 -112.8281 70° East 146 168 11,200 -60 Climbing Albuquerque Center
02:05PM 34.8356 -112.7839 62° Northeast 148 170 11,000 -120 Descending Albuquerque Center
02:06PM 34.8389 -112.7289 86° East 139 160 11,000  Level Albuquerque Center
02:07PM 34.8392 -112.6850 90° East 132 152 11,100 60 Climbing Albuquerque Center
02:08PM 34.8389 -112.6419 90° East 130 150 11,200  Climbing Albuquerque Center
02:09PM 34.8394 -112.5978 89° East 131 151 11,100 -120 Descending Albuquerque Center
02:10PM 34.8414 -112.5531 87° East 132 152 11,000  Descending Albuquerque Center
02:11PM 34.8444 -112.5000 86° East 136 157 11,200 60 Climbing Albuquerque Center
02:12PM 34.8442 -112.4536 90° East 136 157 11,200  Level Albuquerque Center
02:14PM 34.8444 -112.4064 90° East 139 160 11,200 -120 Level Albuquerque Center
02:15PM 34.8444 -112.3589 90° East 142 163 11,000 -300 Descending Albuquerque Center
02:16PM 34.8439 -112.3117 91° East 142 163 10,700 -240 Descending Albuquerque Center
02:17PM 34.8447 -112.2558 89° East 140 161 10,600 -360 Descending Albuquerque Center
02:18PM 34.8436 -112.2103 92° East 137 158 10,000 -420 Descending Albuquerque Center
02:19PM 34.8442 -112.1669 89° East 133 153 9,800 -240 Descending Albuquerque Center
02:20PM 34.8428 -112.1264 92° East 125 144 9,500 -420 Descending Albuquerque Center
02:21PM 34.8433 -112.0803 89° East 121 139 9,000 -540 Descending Albuquerque Center